Time;durP1;ratioP1;P1;durP2;ratioP2;P2;SDS_P1;SDS_P2;PMS_P1;PMS_P2;Temp;Humidity;BMP_temperature;BMP_pressure;BME280_temperature;BME280_humidity;BME280_pressure;Samples;Min_cycle;Max_cycle;Signal;HPM_P1;HPM_P2
2023/01/04 00:00:49;;;;;;;2.33;1.05;;;9.00;99.90;;;8.92;100.00;101805.66;5126225;29;20051;-70
2023/01/04 00:03:22;;;;;;;2.10;0.93;;;9.00;99.90;;;8.97;100.00;101804.22;5124766;29;20046;-70
2023/01/04 00:05:58;;;;;;;3.35;1.25;;;9.10;99.90;;;9.01;100.00;101806.19;5125918;28;20499;-70
2023/01/04 00:08:31;;;;;;;3.15;1.15;;;9.10;99.90;;;9.07;100.00;101797.84;5126384;29;20055;-70
2023/01/04 00:11:05;;;;;;;1.63;1.15;;;9.10;99.90;;;9.10;100.00;101791.09;5125991;29;20051;-71
2023/01/04 00:13:37;;;;;;;2.05;0.70;;;9.20;99.90;;;9.12;100.00;101778.19;5125845;29;20050;-70
2023/01/04 00:16:14;;;;;;;4.07;0.93;;;9.20;99.90;;;9.19;100.00;101786.44;5126141;28;20069;-70
2023/01/04 00:18:46;;;;;;;1.58;1.00;;;9.30;99.90;;;9.22;100.00;101770.09;5125112;29;20051;-70
2023/01/04 00:21:22;;;;;;;1.27;0.80;;;9.30;99.90;;;9.30;100.00;101778.31;5125634;28;20123;-71
2023/01/04 00:23:58;;;;;;;2.65;0.82;;;9.40;99.90;;;9.32;100.00;101766.28;5126042;28;20055;-70
2023/01/04 00:26:33;;;;;;;3.78;1.13;;;9.40;99.90;;;9.33;100.00;101761.19;5125874;28;20047;-71
2023/01/04 00:29:07;;;;;;;2.78;0.80;;;9.40;99.90;;;9.37;100.00;101765.72;5124247;29;20422;-71
2023/01/04 00:31:39;;;;;;;2.38;0.73;;;9.50;99.90;;;9.40;100.00;101768.50;5125911;29;20579;-70
2023/01/04 00:34:16;;;;;;;3.22;1.13;;;9.50;99.90;;;9.48;100.00;101753.31;5126069;29;20035;-70
2023/01/04 00:36:50;;;;;;;3.78;0.82;;;9.50;99.90;;;9.49;100.00;101755.09;5125755;28;20047;-70
2023/01/04 00:39:22;;;;;;;2.35;1.02;;;9.50;99.90;;;9.50;100.00;101752.56;5125184;29;20123;-70
2023/01/04 00:42:03;;;;;;;1.60;0.88;;;9.50;99.90;;;9.52;100.00;101745.75;5126000;28;20134;-70
2023/01/04 00:44:36;;;;;;;1.45;1.25;;;9.60;99.90;;;9.55;100.00;101744.13;5125512;28;20133;-70
2023/01/04 00:47:08;;;;;;;3.38;1.10;;;9.60;99.90;;;9.58;100.00;101733.84;5124861;28;20047;-70
2023/01/04 00:49:40;;;;;;;3.60;1.10;;;9.60;99.90;;;9.62;100.00;101735.81;5124296;29;20111;-70
2023/01/04 00:52:13;;;;;;;3.13;0.90;;;9.70;99.90;;;9.62;100.00;101720.19;5125113;28;20046;-70
2023/01/04 00:54:45;;;;;;;4.25;0.90;;;9.70;99.90;;;9.62;100.00;101725.41;5124130;29;20071;-70
2023/01/04 00:57:18;;;;;;;5.68;0.82;;;9.70;99.90;;;9.64;100.00;101708.16;5125423;28;20151;-69
2023/01/04 00:59:50;;;;;;;2.83;1.00;;;9.70;99.90;;;9.66;100.00;101706.56;5124950;29;20074;-70
2023/01/04 01:02:22;;;;;;;2.63;0.63;;;9.70;99.90;;;9.65;100.00;101692.63;5140531;28;20058;-71
2023/01/04 01:04:54;;;;;;;2.78;1.20;;;9.70;99.90;;;9.65;100.00;101695.25;5125460;29;20059;-70
2023/01/04 01:07:27;;;;;;;2.97;0.93;;;9.70;99.90;;;9.64;100.00;101692.53;5124857;28;20039;-70
2023/01/04 01:09:59;;;;;;;2.78;0.90;;;9.70;99.90;;;9.71;100.00;101684.22;5124826;29;20052;-71
2023/01/04 01:12:31;;;;;;;3.20;1.00;;;9.70;99.90;;;9.71;100.00;101686.81;5125380;29;20047;-71
2023/01/04 01:15:05;;;;;;;2.58;0.85;;;9.70;99.90;;;9.72;100.00;101681.72;5123843;28;20058;-70
2023/01/04 01:17:37;;;;;;;1.05;0.80;;;9.80;99.90;;;9.73;100.00;101675.69;5139759;28;20051;-71
2023/01/04 01:20:10;;;;;;;1.83;0.80;;;9.80;99.90;;;9.71;100.00;101677.31;5125180;29;20047;-69
2023/01/04 01:22:44;;;;;;;3.78;1.08;;;9.80;99.90;;;9.70;100.00;101666.81;5125344;29;20286;-71
2023/01/04 01:25:16;;;;;;;5.28;0.82;;;9.80;99.90;;;9.74;100.00;101674.00;5124925;29;20053;-70
2023/01/04 01:27:48;;;;;;;2.22;1.00;;;9.70;99.90;;;9.70;100.00;101666.81;5125022;29;20123;-69
2023/01/04 01:30:20;;;;;;;2.33;1.13;;;9.80;99.90;;;9.70;100.00;101666.81;5124532;29;20047;-70
2023/01/04 01:32:52;;;;;;;4.13;1.20;;;9.80;99.90;;;9.65;100.00;101663.06;5124810;29;20497;-69
2023/01/04 01:35:24;;;;;;;2.63;0.82;;;9.70;99.90;;;9.67;100.00;101658.88;5139704;28;20059;-71
2023/01/04 01:37:58;;;;;;;2.53;0.82;;;9.70;99.90;;;9.62;100.00;101647.31;5124803;29;20043;-70
2023/01/04 01:40:30;;;;;;;2.58;0.90;;;9.70;99.90;;;9.62;100.00;101652.53;5124396;28;20047;-70
2023/01/04 01:43:02;;;;;;;1.75;0.88;;;9.70;99.90;;;9.59;100.00;101649.78;5124824;29;20043;-70
2023/01/04 01:45:35;;;;;;;2.58;1.02;;;9.70;99.90;;;9.61;100.00;101646.41;5123128;29;20055;-69
2023/01/04 01:48:14;;;;;;;3.10;0.77;;;9.70;99.90;;;9.61;100.00;101649.03;5124622;29;20049;-70
2023/01/04 01:50:50;;;;;;;2.67;1.08;;;9.70;99.90;;;9.60;100.00;101643.75;5138900;28;20055;-71
2023/01/04 01:53:26;;;;;;;3.83;1.05;;;9.70;99.90;;;9.61;100.00;101648.13;5124683;29;20065;-71
2023/01/04 01:56:00;;;;;;;4.50;1.20;;;9.70;99.90;;;9.59;100.00;101639.34;5122856;29;20142;-70
2023/01/04 01:58:37;;;;;;;5.18;0.95;;;9.60;99.90;;;9.57;100.00;101633.16;5124531;28;20554;-69
2023/01/04 02:01:10;;;;;;;1.50;0.82;;;9.60;99.90;;;9.55;100.00;101629.59;5123758;29;20047;-70
2023/01/04 02:03:43;;;;;;;2.63;1.10;;;9.60;99.90;;;9.51;100.00;101629.41;5123726;28;20102;-70
2023/01/04 02:06:24;;;;;;;2.25;1.20;;;9.60;99.90;;;9.52;100.00;101628.63;5139068;28;20051;-72
2023/01/04 02:08:58;;;;;;;2.45;0.90;;;9.60;99.90;;;9.49;100.00;101628.44;5123761;29;20043;-70
2023/01/04 02:11:30;;;;;;;2.50;1.08;;;9.60;99.90;;;9.47;100.00;101621.38;5139118;28;20059;-71
2023/01/04 02:17:10;;;;;;;4.43;1.05;;;9.60;99.90;;;9.44;100.00;101626.41;5082704;28;20149;-71
2023/01/04 02:20:25;;;;;;;2.05;0.75;;;9.50;99.90;;;9.37;100.00;101612.19;5138440;28;20132;-71
2023/01/04 02:23:37;;;;;;;1.50;0.80;;;9.50;99.90;;;9.35;100.00;101611.22;5123879;28;20070;-70
2023/01/04 02:26:51;;;;;;;3.17;1.00;;;9.50;99.90;;;9.35;100.00;101603.41;5122919;29;20320;-70
2023/01/04 02:30:14;;;;;;;1.55;1.13;;;9.50;99.90;;;9.34;100.00;101599.03;5123248;29;20039;-71
2023/01/04 02:32:59;;;;;;;5.00;1.92;;;9.50;99.90;;;9.37;100.00;101591.38;5100331;28;20048;-71
2023/01/04 02:35:41;;;;;;;6.20;2.75;;;9.50;99.90;;;9.35;100.00;101577.41;5123548;29;20169;-71
2023/01/04 02:38:22;;;;;;;4.13;2.10;;;9.50;99.90;;;9.36;100.00;101581.78;5123965;29;20054;-70
2023/01/04 02:41:03;;;;;;;5.25;2.30;;;9.50;99.90;;;9.39;100.00;101584.56;5123389;29;20039;-70
2023/01/04 02:46:40;;;;;;;4.03;2.13;;;9.50;99.90;;;9.41;100.00;101562.09;5103476;29;20106;-71
2023/01/04 02:52:04;;;;;;;3.75;1.85;;;9.50;99.90;;;9.43;100.00;101547.44;5103684;29;20052;-72
2023/01/04 02:54:38;;;;;;;3.65;1.63;;;9.50;99.90;;;9.45;100.00;101538.03;5103907;29;20044;-71
2023/01/04 02:57:37;;;;;;;3.03;1.33;;;9.50;99.90;;;9.48;100.00;101535.56;5103395;29;20140;-71
2023/01/04 03:00:23;;;;;;;4.55;1.45;;;9.50;99.90;;;9.50;100.00;101541.72;5103434;29;20398;-71
2023/01/04 03:06:15;;;;;;;2.88;1.23;;;9.60;99.90;;;9.55;100.00;101526.38;5102341;29;20078;-71
2023/01/04 03:08:56;;;;;;;4.47;1.15;;;9.60;99.90;;;9.58;100.00;101530.81;5103407;29;20441;-70
2023/01/04 03:14:34;;;;;;;3.17;1.00;;;9.60;99.90;;;9.65;100.00;101522.50;5105462;29;20048;-70
2023/01/04 03:17:11;;;;;;;2.13;1.00;;;9.70;99.90;;;9.66;100.00;101517.38;5107510;29;20083;-71
2023/01/04 03:19:53;;;;;;;1.80;0.73;;;9.70;99.90;;;9.67;100.00;101521.78;5105975;29;20048;-70
2023/01/04 03:37:04;;;;;;;1.20;0.85;;;9.80;99.90;;;9.84;100.00;101512.16;5107336;29;20052;-72
2023/01/04 03:48:54;;;;;;;1.35;0.60;;;9.90;99.90;;;10.07;100.00;101482.03;5106983;29;20453;-70
2023/01/04 03:51:31;;;;;;;0.70;0.70;;;10.10;99.90;;;10.05;100.00;101478.50;5107260;29;20063;-70
2023/01/04 03:54:08;;;;;;;1.25;0.60;;;10.10;99.90;;;10.11;100.00;101472.69;5107030;29;20039;-71
2023/01/04 03:56:44;;;;;;;0.77;0.50;;;10.10;99.90;;;10.09;100.00;101459.56;5106449;29;20445;-70
2023/01/04 03:59:17;;;;;;;0.80;0.50;;;10.10;99.90;;;10.15;100.00;101469.38;5106520;29;20409;-71
2023/01/04 04:01:49;;;;;;;0.38;0.35;;;10.10;99.90;;;10.22;100.00;101466.22;5106872;29;20062;-70
2023/01/04 04:10:01;;;;;;;0.60;0.52;;;10.20;99.90;;;10.17;100.00;101459.91;5104930;29;20074;-70
2023/01/04 04:12:34;;;;;;;2.35;0.70;;;10.20;99.90;;;10.16;100.00;101460.72;5105480;29;20052;-70
2023/01/04 04:15:08;;;;;;;0.30;0.30;;;10.20;99.90;;;10.17;100.00;101457.31;5106284;29;20382;-73
2023/01/04 04:17:40;;;;;;;1.40;0.40;;;10.20;99.90;;;10.21;100.00;101461.84;5105127;29;20417;-69
2023/01/04 04:20:13;;;;;;;0.73;0.45;;;10.20;99.90;;;10.18;100.00;101454.78;5106183;29;20048;-71
2023/01/04 04:22:46;;;;;;;0.70;0.55;;;10.20;99.90;;;10.19;100.00;101455.69;5105396;29;20060;-71
2023/01/04 04:25:18;;;;;;;0.47;0.43;;;10.20;99.90;;;10.18;100.00;101435.66;5105442;29;20063;-70
2023/01/04 04:27:51;;;;;;;0.65;0.50;;;10.20;99.90;;;10.20;100.00;101434.00;5106428;29;20074;-70
2023/01/04 04:30:23;;;;;;;1.48;0.70;;;10.20;99.90;;;10.28;100.00;101425.75;5113723;28;20039;-71
2023/01/04 04:32:56;;;;;;;0.73;0.50;;;10.30;99.90;;;10.32;100.00;101425.09;5126082;29;20109;-70
2023/01/04 04:35:28;;;;;;;1.58;0.50;;;10.30;99.90;;;10.32;100.00;101421.59;5126118;29;20535;-71
2023/01/04 04:38:00;;;;;;;0.40;0.40;;;10.30;99.90;;;10.26;100.00;101432.63;5126044;28;20362;-71
2023/01/04 04:43:24;;;;;;;0.77;0.38;;;10.30;99.90;;;10.23;100.00;101423.75;5140807;28;20050;-72
2023/01/04 04:45:56;;;;;;;0.50;0.50;;;10.30;99.90;;;10.24;100.00;101423.84;5125855;28;20051;-71
2023/01/04 04:48:28;;;;;;;1.17;0.30;;;10.30;99.90;;;10.21;100.00;101422.78;5124852;29;20389;-71
2023/01/04 04:51:01;;;;;;;1.00;0.32;;;10.20;99.90;;;10.22;100.00;101420.22;5140369;28;20523;-72
2023/01/04 04:53:33;;;;;;;0.40;0.40;;;10.20;99.90;;;10.21;100.00;101409.75;5140320;28;20050;-70
2023/01/04 04:56:06;;;;;;;0.73;0.43;;;10.20;99.90;;;10.20;100.00;101415.78;5140515;28;20058;-70
2023/01/04 04:58:41;;;;;;;0.35;0.22;;;10.20;99.90;;;10.21;100.00;101407.13;5166137;23;20129;-75
2023/01/04 05:01:13;;;;;;;0.47;0.47;;;10.20;99.90;;;10.25;100.00;101406.50;5165715;28;20034;-75
2023/01/04 05:03:45;;;;;;;0.38;0.32;;;10.30;99.90;;;10.27;100.00;101402.25;5148459;28;20051;-76
2023/01/04 05:06:17;;;;;;;0.50;0.43;;;10.30;99.90;;;10.28;100.00;101410.13;5165883;28;20062;-75
2023/01/04 05:08:49;;;;;;;0.52;0.38;;;10.30;99.90;;;10.26;100.00;101405.69;5165764;28;20042;-75
2023/01/04 05:12:58;;;;;;;0.65;0.43;;;10.30;99.90;;;10.25;100.00;101409.09;5148506;28;20050;-74
2023/01/04 05:14:14;;;;;;;0.85;0.32;;;10.30;99.90;;;10.28;100.00;101401.41;5165266;28;20218;-75
2023/01/04 05:16:47;;;;;;;0.30;0.30;;;10.30;99.90;;;10.32;100.00;101411.16;5166182;28;20046;-74
2023/01/04 05:19:19;;;;;;;0.95;0.40;;;10.30;99.90;;;10.31;100.00;101394.63;5165323;28;20039;-75
2023/01/04 05:21:51;;;;;;;0.32;0.32;;;10.30;99.90;;;10.35;100.00;101410.41;5165693;28;20077;-75
2023/01/04 05:24:23;;;;;;;0.20;0.20;;;10.30;99.90;;;10.31;100.00;101398.97;5165495;28;20534;-75
2023/01/04 05:26:55;;;;;;;0.40;0.40;;;10.30;99.90;;;10.39;100.00;101397.59;5165260;28;20057;-74
2023/01/04 05:32:19;;;;;;;0.22;0.22;;;10.40;99.90;;;10.43;100.00;101383.88;5165413;28;20053;-74
2023/01/04 05:34:51;;;;;;;0.30;0.30;;;10.40;99.90;;;10.44;100.00;101390.88;5165428;28;20043;-75
2023/01/04 05:37:24;;;;;;;0.30;0.30;;;10.40;99.90;;;10.44;100.00;101376.94;5165318;28;20141;-74
2023/01/04 05:39:56;;;;;;;0.25;0.25;;;10.40;99.90;;;10.46;100.00;101368.38;5164852;28;20125;-73
2023/01/04 05:42:28;;;;;;;0.28;0.28;;;10.40;99.90;;;10.42;100.00;101368.16;5165090;28;20049;-74
2023/01/04 05:45:02;;;;;;;0.52;0.52;;;10.40;99.90;;;10.43;100.00;101363.03;5165153;28;20041;-73
2023/01/04 05:47:34;;;;;;;0.13;0.13;;;10.40;99.90;;;10.47;100.00;101369.25;5165183;28;20042;-76
2023/01/04 05:50:08;;;;;;;0.50;0.50;;;10.40;99.90;;;10.45;100.00;101374.41;5164375;28;20045;-74
2023/01/04 05:52:40;;;;;;;0.47;0.28;;;10.40;99.90;;;10.50;100.00;101359.88;5164832;28;20418;-73
2023/01/04 05:55:13;;;;;;;0.40;0.40;;;10.50;99.90;;;10.49;100.00;101363.28;5164832;28;20039;-72
2023/01/04 05:57:46;;;;;;;0.40;0.32;;;10.50;99.90;;;10.45;100.00;101361.38;5164676;28;20046;-74
2023/01/04 06:00:19;;;;;;;1.27;0.50;;;10.50;99.90;;;10.45;100.00;101366.59;5164417;28;20046;-73
2023/01/04 06:02:54;;;;;;;0.20;0.20;;;10.40;99.90;;;10.51;100.00;101356.44;5164691;28;20057;-76
2023/01/04 06:05:26;;;;;;;1.08;0.38;;;10.50;99.90;;;10.53;100.00;101359.09;5146965;28;20050;-74
2023/01/04 06:07:58;;;;;;;0.30;0.30;;;10.50;99.90;;;10.48;100.00;101358.88;5146877;28;20527;-74
2023/01/04 06:10:31;;;;;;;0.32;0.22;;;10.50;99.90;;;10.48;100.00;101366.72;5164565;28;20046;-74
2023/01/04 06:13:03;;;;;;;0.32;0.32;;;10.50;99.90;;;10.45;100.00;101356.16;5164460;28;20046;-74
2023/01/04 06:15:36;;;;;;;0.40;0.40;;;10.40;99.90;;;10.53;100.00;101346.06;5164675;28;20125;-74
2023/01/04 06:18:08;;;;;;;0.32;0.32;;;10.50;99.90;;;10.54;100.00;101348.72;5164334;28;20050;-74
2023/01/04 06:20:42;;;;;;;0.25;0.22;;;10.50;99.90;;;10.52;100.00;101345.19;5163860;28;20517;-74
2023/01/04 06:23:14;;;;;;;0.30;0.30;;;10.50;99.90;;;10.52;100.00;101339.06;5164020;28;20381;-78
2023/01/04 06:25:46;;;;;;;0.20;0.20;;;10.50;99.90;;;10.51;100.00;101327.75;5163926;28;20058;-74
2023/01/04 06:28:18;;;;;;;0.22;0.22;;;10.50;99.90;;;10.50;100.00;101328.59;5164278;28;20056;-73
2023/01/04 06:30:52;;;;;;;1.27;0.22;;;10.50;99.90;;;10.54;100.00;101330.47;5163824;28;20049;-73
2023/01/04 06:33:24;;;;;;;0.43;0.25;;;10.50;99.90;;;10.60;100.00;101328.16;5164042;28;20403;-75
2023/01/04 06:35:56;;;;;;;0.20;0.20;;;10.60;99.90;;;10.56;100.00;101326.25;5163765;28;20399;-74
2023/01/04 06:38:30;;;;;;;0.20;0.20;;;10.60;99.90;;;10.58;100.00;101321.97;5163387;28;20125;-72
2023/01/04 06:41:03;;;;;;;0.20;0.20;;;10.60;99.90;;;10.65;100.00;101330.06;5164324;28;20518;-74
2023/01/04 06:43:35;;;;;;;0.13;0.13;;;10.60;99.90;;;10.64;100.00;101320.47;5163840;28;20042;-73
2023/01/04 06:46:08;;;;;;;0.22;0.22;;;10.60;99.90;;;10.75;100.00;101327.91;5146210;28;20057;-74
2023/01/04 06:48:40;;;;;;;0.22;0.22;;;10.70;99.90;;;10.70;100.00;101332.06;5162874;28;20046;-73
2023/01/04 06:51:12;;;;;;;0.70;0.45;;;10.70;99.90;;;10.76;100.00;101321.00;5163803;28;20045;-74
2023/01/04 06:53:44;;;;;;;0.13;0.13;;;10.70;99.90;;;10.75;100.00;101309.66;5163401;28;20046;-73
2023/01/04 06:56:17;;;;;;;0.22;0.22;;;10.70;99.90;;;10.78;100.00;101307.19;5163580;28;20054;-73
2023/01/04 06:58:49;;;;;;;0.22;0.22;;;10.70;99.90;;;10.76;100.00;101303.63;5145325;28;20046;-74
2023/01/04 07:01:22;;;;;;;0.20;0.20;;;10.70;99.90;;;10.75;100.00;101308.75;5163389;28;20066;-74
2023/01/04 07:03:55;;;;;;;0.25;0.22;;;10.70;99.90;;;10.73;100.00;101302.59;5145894;28;20053;-60
2023/01/04 07:06:27;;;;;;;0.22;0.22;;;10.70;99.90;;;10.74;100.00;101310.47;5164193;28;20046;-60
2023/01/04 07:08:59;;;;;;;0.28;0.28;;;10.70;99.90;;;10.76;100.00;101294.91;5163782;28;20129;-59
2023/01/04 07:11:31;;;;;;;0.38;0.30;;;10.70;99.90;;;10.74;100.00;101302.66;5164239;28;20448;-61
2023/01/04 07:14:03;;;;;;;0.20;0.20;;;10.70;99.90;;;10.72;100.00;101298.22;5162898;28;20043;-60
2023/01/04 07:16:36;;;;;;;0.28;0.28;;;10.70;99.90;;;10.75;100.00;101300.94;5162551;28;20133;-61
2023/01/04 07:19:09;;;;;;;0.15;0.15;;;10.70;99.90;;;10.81;100.00;101307.28;5162992;28;20042;-60
2023/01/04 07:21:41;;;;;;;0.20;0.20;;;10.80;99.90;;;10.80;100.00;101307.25;5162949;28;20053;-62
2023/01/04 07:24:13;;;;;;;0.73;0.28;;;10.80;99.90;;;10.84;100.00;101306.56;5162703;28;20046;-61
2023/01/04 07:26:45;;;;;;;0.38;0.22;;;10.80;99.90;;;10.79;100.00;101308.06;5162717;28;20411;-62
2023/01/04 07:29:17;;;;;;;0.25;0.22;;;10.80;99.90;;;10.76;100.00;101305.34;5162282;28;20066;-62
2023/01/04 07:31:52;;;;;;;0.22;0.22;;;10.70;99.90;;;10.73;100.00;101300.00;5162697;28;20057;-62
2023/01/04 07:34:27;;;;;;;0.13;0.13;;;10.70;99.90;;;10.71;100.00;101312.06;5162668;28;20046;-62
2023/01/04 07:36:59;;;;;;;0.20;0.20;;;10.70;99.90;;;10.69;100.00;101298.06;5162398;28;20046;-61
2023/01/04 07:39:31;;;;;;;0.30;0.30;;;10.70;99.90;;;10.71;100.00;101306.88;5162039;28;20472;-61
2023/01/04 07:42:03;;;;;;;0.50;0.20;;;10.70;99.90;;;10.72;100.00;101290.38;5162693;28;20046;-61
2023/01/04 07:44:35;;;;;;;0.22;0.13;;;10.70;99.90;;;10.73;100.00;101289.56;5160982;28;20050;-62
2023/01/04 07:47:09;;;;;;;0.45;0.30;;;10.70;99.90;;;10.73;100.00;101284.34;5162681;28;20057;-61
2023/01/04 07:49:41;;;;;;;0.13;0.13;;;10.70;99.90;;;10.77;100.00;101294.09;5162107;28;20096;-60
2023/01/04 07:52:13;;;;;;;0.32;0.32;;;10.70;99.90;;;10.77;100.00;101297.59;5162239;28;20126;-60
2023/01/04 07:54:45;;;;;;;0.40;0.40;;;10.70;99.90;;;10.79;100.00;101295.03;5162298;28;20047;-60
2023/01/04 07:57:17;;;;;;;0.63;0.40;;;10.70;99.90;;;10.87;100.00;101293.63;5161869;28;20046;-62
2023/01/04 07:59:50;;;;;;;0.52;0.32;;;10.80;99.90;;;10.89;100.00;101286.78;5161643;28;20515;-61
2023/01/04 08:02:24;;;;;;;0.52;0.50;;;10.80;99.90;;;10.89;100.00;101276.34;5165792;28;20057;-59
2023/01/04 08:04:56;;;;;;;0.20;0.20;;;10.80;99.90;;;10.86;100.00;101273.59;5166324;28;20411;-60
2023/01/04 08:07:28;;;;;;;0.40;0.40;;;10.80;99.90;;;10.98;100.00;101291.47;5165839;28;20076;-61
2023/01/04 08:10:00;;;;;;;0.30;0.28;;;10.90;99.90;;;10.99;100.00;101283.69;5166035;28;20039;-61
2023/01/04 08:12:32;;;;;;;0.30;0.30;;;10.90;99.90;;;11.01;100.00;101291.56;5166282;28;20062;-60
2023/01/04 08:15:06;;;;;;;0.32;0.32;;;10.90;99.90;;;11.00;100.00;101290.69;5165730;28;20056;-60
2023/01/04 08:17:39;;;;;;;0.22;0.22;;;11.00;99.90;;;11.01;100.00;101292.47;5165879;28;20495;-61
2023/01/04 08:20:11;;;;;;;0.30;0.25;;;10.90;99.90;;;11.00;100.00;101298.50;5165476;28;20050;-59
2023/01/04 08:22:44;;;;;;;0.93;0.50;;;11.00;99.90;;;11.05;100.00;101299.59;5148318;28;20050;-60
2023/01/04 08:25:16;;;;;;;0.45;0.30;;;11.00;99.90;;;11.08;100.00;101304.03;5165554;28;20042;-60
2023/01/04 08:27:48;;;;;;;0.50;0.50;;;11.00;99.90;;;11.10;100.00;101291.97;5165962;28;20073;-59
2023/01/04 08:30:20;;;;;;;0.35;0.25;;;11.00;99.90;;;11.10;100.00;101292.84;5165509;28;20415;-60
2023/01/04 08:32:53;;;;;;;0.30;0.30;;;11.00;99.90;;;11.10;100.00;101305.91;5164939;28;20045;-59
2023/01/04 08:35:25;;;;;;;0.30;0.30;;;11.00;99.90;;;11.11;100.00;101293.75;5133259;28;20055;-60
2023/01/04 08:37:57;;;;;;;0.35;0.35;;;11.00;99.90;;;11.14;100.00;101299.06;5144458;28;20068;-61
2023/01/04 08:40:29;;;;;;;0.32;0.32;;;11.10;99.90;;;11.17;100.00;101298.31;5145191;28;20050;-61
2023/01/04 08:43:01;;;;;;;0.95;0.30;;;11.10;99.90;;;11.19;100.00;101291.44;5154459;28;20057;-61
2023/01/04 08:45:33;;;;;;;0.35;0.30;;;11.10;99.90;;;11.27;100.00;101295.25;5147022;28;20411;-60
2023/01/04 08:48:07;;;;;;;0.50;0.40;;;11.10;99.90;;;11.24;100.00;101298.63;5145325;28;20047;-58
2023/01/04 08:50:39;;;;;;;1.48;0.30;;;11.20;99.90;;;11.24;100.00;101290.81;5145049;28;20496;-60
2023/01/04 08:53:11;;;;;;;0.22;0.22;;;11.10;99.90;;;11.27;100.00;101295.25;5145321;28;20134;-59
2023/01/04 08:55:50;;;;;;;0.30;0.30;;;11.20;99.90;;;11.30;100.00;101300.59;5145353;28;20552;-59
2023/01/04 08:58:23;;;;;;;0.77;0.40;;;11.20;99.90;;;11.30;100.00;101292.78;5143965;28;20053;-59
2023/01/04 09:01:01;;;;;;;0.30;0.30;;;11.20;99.90;;;11.33;100.00;101290.25;5144847;28;20056;-59
2023/01/04 09:03:35;;;;;;;0.30;0.30;;;11.30;99.90;;;11.38;100.00;101281.78;5145166;28;20388;-58
2023/01/04 09:06:11;;;;;;;0.20;0.20;;;11.30;99.90;;;11.38;100.00;101288.72;5145060;28;20515;-61
2023/01/04 09:08:44;;;;;;;0.32;0.32;;;11.30;99.90;;;11.40;100.00;101277.50;5144842;28;20515;-59
2023/01/04 09:11:19;;;;;;;0.32;0.32;;;11.30;99.90;;;11.52;100.00;101274.50;5143012;28;20043;-59
2023/01/04 09:13:56;;;;;;;1.33;0.35;;;11.40;99.90;;;11.54;100.00;101282.38;5145057;28;20411;-61
2023/01/04 09:16:28;;;;;;;0.30;0.30;;;11.40;99.90;;;11.55;100.00;101277.22;5144678;28;20046;-59
2023/01/04 09:19:01;;;;;;;0.22;0.22;;;11.50;99.90;;;11.63;100.00;101274.91;5144688;28;20051;-59
2023/01/04 09:21:35;;;;;;;0.40;0.40;;;11.50;99.90;;;11.65;100.00;101278.47;5144957;28;20051;-60
2023/01/04 09:24:07;;;;;;;0.30;0.30;;;11.50;99.90;;;11.67;100.00;101275.09;5144850;28;20039;-58
2023/01/04 09:26:39;;;;;;;0.45;0.22;;;11.60;99.90;;;11.66;100.00;101282.84;5141354;28;20089;-59
2023/01/04 09:29:11;;;;;;;0.28;0.28;;;11.60;99.90;;;11.65;100.00;101279.34;5144276;28;20051;-60
2023/01/04 09:31:43;;;;;;;0.17;0.17;;;11.60;99.90;;;11.73;100.00;101273.53;5143812;28;20058;-59
2023/01/04 09:34:17;;;;;;;0.30;0.30;;;11.60;99.90;;;11.77;100.00;101291.09;5142615;28;20051;-58
2023/01/04 09:36:50;;;;;;;0.30;0.30;;;11.70;99.90;;;11.77;100.00;101281.53;5131702;28;20034;-59
2023/01/04 09:39:25;;;;;;;0.25;0.25;;;11.60;99.90;;;11.80;100.00;101275.53;5142100;28;20054;-61
2023/01/04 09:41:59;;;;;;;0.40;0.32;;;11.70;99.90;;;11.81;100.00;101283.47;5141242;28;20150;-59
2023/01/04 09:44:37;;;;;;;0.30;0.30;;;11.70;99.90;;;11.79;100.00;101266.81;5140956;28;20054;-59
2023/01/04 09:47:14;;;;;;;0.30;0.22;;;11.70;99.90;;;11.83;100.00;101273.09;5141980;28;20055;-59
2023/01/04 09:49:54;;;;;;;0.43;0.43;;;11.70;99.90;;;11.92;100.00;101283.84;5140846;28;20047;-60
2023/01/04 09:52:40;;;;;;;0.30;0.30;;;11.70;99.90;;;11.90;100.00;101280.31;5140376;28;20061;-60
2023/01/04 09:55:20;;;;;;;0.30;0.30;;;11.80;99.90;;;11.91;100.00;101274.25;5141353;28;20046;-59
2023/01/04 09:57:58;;;;;;;0.13;0.13;;;11.80;99.90;;;11.96;100.00;101270.09;5143687;28;20045;-59
2023/01/04 10:00:35;;;;;;;0.30;0.30;;;11.80;99.90;;;12.08;100.00;101270.53;5143664;28;20050;-61
2023/01/04 10:03:15;;;;;;;2.80;0.32;;;12.00;99.90;;;12.17;100.00;101268.25;5143888;28;20047;-60
2023/01/04 10:05:50;;;;;;;0.13;0.13;;;12.00;99.90;;;12.21;100.00;101266.63;5143788;28;20042;-60
2023/01/04 10:08:22;;;;;;;3.63;0.40;;;12.10;99.90;;;12.22;100.00;101258.84;5143972;28;20400;-58
2023/01/04 10:11:10;;;;;;;0.35;0.35;;;12.10;99.90;;;12.32;100.00;101259.16;5143709;28;20053;-60
2023/01/04 10:14:00;;;;;;;1.58;0.47;;;12.20;99.90;;;12.34;100.00;101244.44;5143967;28;20556;-60
2023/01/04 10:16:56;;;;;;;0.22;0.22;;;12.20;99.90;;;12.27;100.00;101255.53;5143669;28;20046;-59
2023/01/04 10:19:43;;;;;;;0.35;0.35;;;12.20;99.90;;;12.26;100.00;101248.47;5143817;28;20522;-59
2023/01/04 10:22:26;;;;;;;0.30;0.30;;;12.20;99.90;;;12.26;100.00;101245.88;5143929;28;20046;-59
2023/01/04 10:25:22;;;;;;;0.30;0.30;;;12.10;99.90;;;12.29;100.00;101240.75;5143349;28;20057;-59
2023/01/04 10:28:13;;;;;;;0.32;0.32;;;12.20;99.90;;;12.31;100.00;101242.59;5142137;28;20050;-59
2023/01/04 10:30:54;;;;;;;0.13;0.13;;;12.20;99.90;;;12.29;100.00;101232.94;5142113;28;21479;-59
2023/01/04 10:33:37;;;;;;;0.20;0.20;;;12.20;99.90;;;12.30;100.00;101232.09;5141478;28;20110;-59
2023/01/04 10:36:19;;;;;;;1.27;0.30;;;12.20;99.90;;;12.34;100.00;101236.59;5142744;28;20089;-59
2023/01/04 10:38:59;;;;;;;0.40;0.32;;;12.20;99.90;;;12.42;100.00;101232.50;5141732;28;20585;-59
2023/01/04 10:41:40;;;;;;;0.32;0.20;;;12.30;99.90;;;12.41;100.00;101230.75;5143619;28;20070;-59
2023/01/04 10:44:19;;;;;;;0.28;0.17;;;12.30;99.90;;;12.39;100.00;101235.03;5143511;28;20439;-59
2023/01/04 10:47:02;;;;;;;0.20;0.20;;;12.30;99.90;;;12.43;100.00;101226.44;5143138;28;20138;-60
2023/01/04 10:49:42;;;;;;;0.22;0.17;;;12.30;99.90;;;12.40;100.00;101227.25;5143152;28;20073;-60
2023/01/04 10:52:18;;;;;;;1.02;0.30;;;12.30;99.90;;;12.37;100.00;101226.22;5143351;28;20378;-59
2023/01/04 10:54:59;;;;;;;0.43;0.43;;;12.20;99.90;;;12.32;100.00;101227.78;5143341;28;20047;-58
2023/01/04 10:57:39;;;;;;;0.30;0.30;;;12.20;99.90;;;12.25;100.00;101218.84;5207521;23;20065;-60
2023/01/04 11:00:15;;;;;;;0.75;0.30;;;12.20;99.90;;;12.21;100.00;101220.47;5143170;28;20045;-62
2023/01/04 11:02:57;;;;;;;0.25;0.15;;;12.10;99.90;;;12.18;100.00;101214.25;5143060;28;20057;-61
2023/01/04 11:05:35;;;;;;;1.95;0.40;;;12.10;99.90;;;12.32;100.00;101217.34;5141753;28;20078;-62
2023/01/04 11:08:12;;;;;;;0.65;0.30;;;12.20;99.90;;;12.60;100.00;101206.09;5142374;28;20047;-61
2023/01/04 11:10:53;;;;;;;0.45;0.45;;;12.50;99.90;;;12.68;100.00;101208.13;5142781;28;20049;-62
2023/01/04 11:13:25;;;;;;;0.40;0.30;;;12.70;99.90;;;12.63;100.00;101203.56;5141747;28;20133;-61
2023/01/04 11:16:00;;;;;;;0.68;0.40;;;12.60;99.90;;;12.69;100.00;101193.31;5140777;28;20049;-60
2023/01/04 11:18:36;;;;;;;0.60;0.40;;;12.70;99.90;;;12.68;100.00;101192.41;5142882;28;20043;-61
2023/01/04 11:21:13;;;;;;;2.45;0.45;;;12.70;99.90;;;12.63;100.00;101195.72;5143215;28;20495;-59
2023/01/04 11:23:45;;;;;;;2.88;0.88;;;12.60;99.90;;;12.50;100.00;101191.81;5141764;28;20047;-60
2023/01/04 11:26:23;;;;;;;7.53;1.30;;;12.50;99.90;;;12.41;100.00;101196.75;5141531;28;20141;-59
2023/01/04 11:29:00;;;;;;;4.57;0.60;;;12.40;99.90;;;12.35;100.00;101196.53;5142958;28;20065;-61
2023/01/04 11:31:49;;;;;;;3.08;0.38;;;12.40;99.90;;;12.29;100.00;101180.66;5142582;28;20415;-60
2023/01/04 11:34:46;;;;;;;1.88;0.60;;;12.20;99.90;;;12.21;100.00;101178.66;5143433;28;20121;-60